sensor_id;sensor_type;location;lat;lon;timestamp;temperature;humidity
7129;DHT22;3606;52.930;8.644;2023-02-28T00:00:13;1.30;1.00
7129;DHT22;3606;52.930;8.644;2023-02-28T00:02:42;1.30;1.00
7129;DHT22;3606;52.930;8.644;2023-02-28T00:05:09;1.20;1.00
7129;DHT22;3606;52.930;8.644;2023-02-28T00:07:35;1.30;1.00
7129;DHT22;3606;52.930;8.644;2023-02-28T00:10:01;1.30;1.00
7129;DHT22;3606;52.930;8.644;2023-02-28T00:12:27;1.40;1.00
7129;DHT22;3606;52.930;8.644;2023-02-28T00:14:52;1.40;1.00
7129;DHT22;3606;52.930;8.644;2023-02-28T00:17:18;1.40;1.00
7129;DHT22;3606;52.930;8.644;2023-02-28T00:19:47;1.50;1.00
7129;DHT22;3606;52.930;8.644;2023-02-28T00:22:15;1.60;99.90
7129;DHT22;3606;52.930;8.644;2023-02-28T00:24:41;1.50;99.90
7129;DHT22;3606;52.930;8.644;2023-02-28T00:27:06;1.50;99.90
7129;DHT22;3606;52.930;8.644;2023-02-28T00:29:32;1.50;1.00
7129;DHT22;3606;52.930;8.644;2023-02-28T00:31:57;1.40;1.00
7129;DHT22;3606;52.930;8.644;2023-02-28T00:34:23;1.40;1.00
7129;DHT22;3606;52.930;8.644;2023-02-28T00:36:49;1.40;1.00
7129;DHT22;3606;52.930;8.644;2023-02-28T00:39:15;1.30;1.00
7129;DHT22;3606;52.930;8.644;2023-02-28T00:41:40;1.30;1.00
7129;DHT22;3606;52.930;8.644;2023-02-28T00:44:06;1.30;1.00
7129;DHT22;3606;52.930;8.644;2023-02-28T00:46:32;1.30;1.00
7129;DHT22;3606;52.930;8.644;2023-02-28T00:48:57;1.30;1.00
7129;DHT22;3606;52.930;8.644;2023-02-28T00:51:23;1.40;1.00
7129;DHT22;3606;52.930;8.644;2023-02-28T00:53:49;1.50;1.00
7129;DHT22;3606;52.930;8.644;2023-02-28T00:56:14;1.50;1.00
7129;DHT22;3606;52.930;8.644;2023-02-28T00:58:40;1.50;1.00
7129;DHT22;3606;52.930;8.644;2023-02-28T01:01:06;1.40;1.00
7129;DHT22;3606;52.930;8.644;2023-02-28T01:03:31;1.40;1.00
7129;DHT22;3606;52.930;8.644;2023-02-28T01:05:57;1.40;1.00
7129;DHT22;3606;52.930;8.644;2023-02-28T01:08:23;1.40;1.00
7129;DHT22;3606;52.930;8.644;2023-02-28T01:10:48;1.40;1.00
7129;DHT22;3606;52.930;8.644;2023-02-28T01:13:14;1.40;1.00
7129;DHT22;3606;52.930;8.644;2023-02-28T01:15:43;1.30;1.00
7129;DHT22;3606;52.930;8.644;2023-02-28T01:18:09;1.20;1.00
7129;DHT22;3606;52.930;8.644;2023-02-28T01:20:37;1.10;1.00
7129;DHT22;3606;52.930;8.644;2023-02-28T01:23:02;1.00;1.00
7129;DHT22;3606;52.930;8.644;2023-02-28T01:25:28;0.90;1.00
7129;DHT22;3606;52.930;8.644;2023-02-28T01:27:53;0.80;64.00
7129;DHT22;3606;52.930;8.644;2023-02-28T01:30:19;0.60;99.90
7129;DHT22;3606;52.930;8.644;2023-02-28T01:32:45;0.60;1.00
7129;DHT22;3606;52.930;8.644;2023-02-28T01:35:10;0.60;1.00
7129;DHT22;3606;52.930;8.644;2023-02-28T01:37:36;0.60;1.00
7129;DHT22;3606;52.930;8.644;2023-02-28T01:40:02;0.60;1.00
7129;DHT22;3606;52.930;8.644;2023-02-28T01:42:28;0.60;1.00
7129;DHT22;3606;52.930;8.644;2023-02-28T01:45:23;0.60;1.00
7129;DHT22;3606;52.930;8.644;2023-02-28T01:47:54;0.70;1.00
7129;DHT22;3606;52.930;8.644;2023-02-28T01:50:23;0.70;1.00
7129;DHT22;3606;52.930;8.644;2023-02-28T01:52:50;0.70;1.00
7129;DHT22;3606;52.930;8.644;2023-02-28T01:55:19;0.80;1.00
7129;DHT22;3606;52.930;8.644;2023-02-28T01:57:50;0.80;1.00
7129;DHT22;3606;52.930;8.644;2023-02-28T02:00:20;0.80;1.00
7129;DHT22;3606;52.930;8.644;2023-02-28T02:02:50;0.80;1.00
7129;DHT22;3606;52.930;8.644;2023-02-28T02:05:19;0.90;1.00
7129;DHT22;3606;52.930;8.644;2023-02-28T02:07:48;0.90;1.00
7129;DHT22;3606;52.930;8.644;2023-02-28T02:10:35;0.90;1.00
7129;DHT22;3606;52.930;8.644;2023-02-28T02:26:50;1.40;99.90
7129;DHT22;3606;52.930;8.644;2023-02-28T02:29:41;1.40;99.90
7129;DHT22;3606;52.930;8.644;2023-02-28T02:34:56;1.40;99.90
7129;DHT22;3606;52.930;8.644;2023-02-28T02:39:59;1.50;1.00
7129;DHT22;3606;52.930;8.644;2023-02-28T02:45:11;1.40;1.00
7129;DHT22;3606;52.930;8.644;2023-02-28T02:47:38;1.40;1.00
7129;DHT22;3606;52.930;8.644;2023-02-28T02:50:08;1.40;1.00
7129;DHT22;3606;52.930;8.644;2023-02-28T02:52:41;1.40;1.00
7129;DHT22;3606;52.930;8.644;2023-02-28T02:55:09;1.40;1.00
7129;DHT22;3606;52.930;8.644;2023-02-28T02:57:49;1.50;1.00
7129;DHT22;3606;52.930;8.644;2023-02-28T03:00:18;1.50;1.00
7129;DHT22;3606;52.930;8.644;2023-02-28T03:02:47;1.60;99.90
7129;DHT22;3606;52.930;8.644;2023-02-28T03:05:19;1.50;99.90
7129;DHT22;3606;52.930;8.644;2023-02-28T03:07:47;1.40;99.90
7129;DHT22;3606;52.930;8.644;2023-02-28T03:10:30;1.40;99.90
7129;DHT22;3606;52.930;8.644;2023-02-28T03:21:38;1.50;99.90
7129;DHT22;3606;52.930;8.644;2023-02-28T03:24:31;1.40;1.00
7129;DHT22;3606;52.930;8.644;2023-02-28T03:27:06;1.40;1.00
7129;DHT22;3606;52.930;8.644;2023-02-28T03:29:37;1.40;1.00
7129;DHT22;3606;52.930;8.644;2023-02-28T03:32:18;1.30;85.40
7129;DHT22;3606;52.930;8.644;2023-02-28T03:40:43;1.30;1.00
7129;DHT22;3606;52.930;8.644;2023-02-28T03:43:13;1.30;1.00
7129;DHT22;3606;52.930;8.644;2023-02-28T03:45:42;1.20;1.00
7129;DHT22;3606;52.930;8.644;2023-02-28T03:50:49;1.10;1.00
7129;DHT22;3606;52.930;8.644;2023-02-28T03:53:33;1.00;16.90
7129;DHT22;3606;52.930;8.644;2023-02-28T03:56:08;0.90;99.90
7129;DHT22;3606;52.930;8.644;2023-02-28T03:58:47;0.80;1.00
7129;DHT22;3606;52.930;8.644;2023-02-28T04:01:21;0.70;1.00
7129;DHT22;3606;52.930;8.644;2023-02-28T04:03:49;0.50;99.90
7129;DHT22;3606;52.930;8.644;2023-02-28T04:06:20;0.40;1.00
7129;DHT22;3606;52.930;8.644;2023-02-28T04:08:47;0.30;99.90
7129;DHT22;3606;52.930;8.644;2023-02-28T04:13:51;0.20;1.00
7129;DHT22;3606;52.930;8.644;2023-02-28T04:16:16;0.10;1.00
7129;DHT22;3606;52.930;8.644;2023-02-28T04:18:42;0.00;1.00
7129;DHT22;3606;52.930;8.644;2023-02-28T04:21:11;0.00;20.00
7129;DHT22;3606;52.930;8.644;2023-02-28T04:23:37;-0.10;99.90
7129;DHT22;3606;52.930;8.644;2023-02-28T04:26:03;-0.20;99.90
7129;DHT22;3606;52.930;8.644;2023-02-28T04:28:29;-0.30;99.90
7129;DHT22;3606;52.930;8.644;2023-02-28T04:31:02;-0.30;99.90
7129;DHT22;3606;52.930;8.644;2023-02-28T04:33:28;-0.40;99.90
7129;DHT22;3606;52.930;8.644;2023-02-28T04:36:04;-0.40;99.90
7129;DHT22;3606;52.930;8.644;2023-02-28T04:38:32;-0.40;1.00
7129;DHT22;3606;52.930;8.644;2023-02-28T04:40:59;-0.40;1.00
7129;DHT22;3606;52.930;8.644;2023-02-28T04:43:27;-0.40;1.00
7129;DHT22;3606;52.930;8.644;2023-02-28T04:45:54;-0.30;1.00
7129;DHT22;3606;52.930;8.644;2023-02-28T04:48:31;-0.30;1.00
7129;DHT22;3606;52.930;8.644;2023-02-28T04:51:06;-0.30;1.00
7129;DHT22;3606;52.930;8.644;2023-02-28T04:53:32;-0.20;1.00
7129;DHT22;3606;52.930;8.644;2023-02-28T04:55:58;-0.20;1.00
7129;DHT22;3606;52.930;8.644;2023-02-28T04:58:24;-0.30;1.00
7129;DHT22;3606;52.930;8.644;2023-02-28T05:00:53;-0.30;1.00
7129;DHT22;3606;52.930;8.644;2023-02-28T05:03:20;-0.40;1.00
7129;DHT22;3606;52.930;8.644;2023-02-28T05:05:48;-0.50;1.00
7129;DHT22;3606;52.930;8.644;2023-02-28T05:08:14;-0.50;1.00
7129;DHT22;3606;52.930;8.644;2023-02-28T05:10:39;-0.60;1.00
7129;DHT22;3606;52.930;8.644;2023-02-28T05:13:05;-0.70;1.00
7129;DHT22;3606;52.930;8.644;2023-02-28T05:15:30;-0.80;1.00
7129;DHT22;3606;52.930;8.644;2023-02-28T05:17:56;-0.90;1.00
7129;DHT22;3606;52.930;8.644;2023-02-28T05:20:22;-1.10;1.00
7129;DHT22;3606;52.930;8.644;2023-02-28T05:22:47;-1.20;1.00
7129;DHT22;3606;52.930;8.644;2023-02-28T05:25:17;-1.40;1.00
7129;DHT22;3606;52.930;8.644;2023-02-28T05:27:43;-1.60;1.00
7129;DHT22;3606;52.930;8.644;2023-02-28T05:30:10;-1.70;1.00
7129;DHT22;3606;52.930;8.644;2023-02-28T05:32:37;-1.80;1.00
7129;DHT22;3606;52.930;8.644;2023-02-28T05:35:03;-2.00;1.00
7129;DHT22;3606;52.930;8.644;2023-02-28T05:37:29;-2.00;46.20
7129;DHT22;3606;52.930;8.644;2023-02-28T05:39:55;-1.90;99.90
7129;DHT22;3606;52.930;8.644;2023-02-28T05:42:20;-1.60;99.90
7129;DHT22;3606;52.930;8.644;2023-02-28T05:44:46;-1.50;99.90
7129;DHT22;3606;52.930;8.644;2023-02-28T05:47:12;-1.50;99.90
7129;DHT22;3606;52.930;8.644;2023-02-28T05:49:41;-1.60;99.90
7129;DHT22;3606;52.930;8.644;2023-02-28T05:52:06;-1.70;99.90
7129;DHT22;3606;52.930;8.644;2023-02-28T05:54:32;-1.70;99.90
7129;DHT22;3606;52.930;8.644;2023-02-28T05:56:58;-1.80;99.90
7129;DHT22;3606;52.930;8.644;2023-02-28T05:59:23;-1.80;99.90
7129;DHT22;3606;52.930;8.644;2023-02-28T06:01:49;-1.70;99.90
7129;DHT22;3606;52.930;8.644;2023-02-28T06:04:16;-1.50;99.90
7129;DHT22;3606;52.930;8.644;2023-02-28T06:06:45;-1.30;99.90
7129;DHT22;3606;52.930;8.644;2023-02-28T06:09:11;-1.20;99.90
7129;DHT22;3606;52.930;8.644;2023-02-28T06:11:37;-1.00;99.90
7129;DHT22;3606;52.930;8.644;2023-02-28T06:14:04;-0.90;99.90
7129;DHT22;3606;52.930;8.644;2023-02-28T06:16:33;-0.90;99.90
7129;DHT22;3606;52.930;8.644;2023-02-28T06:19:00;-0.80;99.90
7129;DHT22;3606;52.930;8.644;2023-02-28T06:21:27;-0.80;99.90
7129;DHT22;3606;52.930;8.644;2023-02-28T06:23:53;-0.90;99.90
7129;DHT22;3606;52.930;8.644;2023-02-28T06:26:19;-1.00;99.90
7129;DHT22;3606;52.930;8.644;2023-02-28T06:28:45;-1.00;99.90
7129;DHT22;3606;52.930;8.644;2023-02-28T06:31:14;-1.00;99.90
7129;DHT22;3606;52.930;8.644;2023-02-28T06:33:40;-1.00;99.90
7129;DHT22;3606;52.930;8.644;2023-02-28T06:36:07;-1.00;99.90
7129;DHT22;3606;52.930;8.644;2023-02-28T06:38:34;-1.00;99.90
7129;DHT22;3606;52.930;8.644;2023-02-28T06:41:01;-1.00;99.90
7129;DHT22;3606;52.930;8.644;2023-02-28T06:43:32;-1.00;99.90
7129;DHT22;3606;52.930;8.644;2023-02-28T06:46:00;-1.10;99.90
7129;DHT22;3606;52.930;8.644;2023-02-28T06:48:26;-1.20;99.90
7129;DHT22;3606;52.930;8.644;2023-02-28T06:51:00;-1.20;99.90
7129;DHT22;3606;52.930;8.644;2023-02-28T06:53:26;-1.30;99.90
7129;DHT22;3606;52.930;8.644;2023-02-28T06:55:52;-1.30;99.90
7129;DHT22;3606;52.930;8.644;2023-02-28T06:58:17;-1.40;99.90
7129;DHT22;3606;52.930;8.644;2023-02-28T07:00:45;-1.40;99.90
7129;DHT22;3606;52.930;8.644;2023-02-28T07:03:12;-1.40;99.90
7129;DHT22;3606;52.930;8.644;2023-02-28T07:05:39;-1.40;99.90
7129;DHT22;3606;52.930;8.644;2023-02-28T07:08:05;-1.40;99.90
7129;DHT22;3606;52.930;8.644;2023-02-28T07:10:32;-1.40;99.90
7129;DHT22;3606;52.930;8.644;2023-02-28T07:12:58;-1.40;99.90
7129;DHT22;3606;52.930;8.644;2023-02-28T07:15:24;-1.30;99.90
7129;DHT22;3606;52.930;8.644;2023-02-28T07:17:49;-1.20;99.90
7129;DHT22;3606;52.930;8.644;2023-02-28T07:20:15;-1.20;99.90
7129;DHT22;3606;52.930;8.644;2023-02-28T07:22:41;-1.10;99.90
7129;DHT22;3606;52.930;8.644;2023-02-28T07:25:08;-1.10;99.90
7129;DHT22;3606;52.930;8.644;2023-02-28T07:27:34;-1.10;99.90
7129;DHT22;3606;52.930;8.644;2023-02-28T07:30:00;-1.00;99.90
7129;DHT22;3606;52.930;8.644;2023-02-28T07:32:27;-0.50;99.90
7129;DHT22;3606;52.930;8.644;2023-02-28T07:34:53;1.10;99.90
7129;DHT22;3606;52.930;8.644;2023-02-28T07:37:19;2.90;99.90
7129;DHT22;3606;52.930;8.644;2023-02-28T07:39:44;4.40;99.90
7129;DHT22;3606;52.930;8.644;2023-02-28T07:42:10;5.60;99.90
7129;DHT22;3606;52.930;8.644;2023-02-28T07:44:38;6.70;99.90
7129;DHT22;3606;52.930;8.644;2023-02-28T07:47:10;7.60;1.00
7129;DHT22;3606;52.930;8.644;2023-02-28T07:49:38;8.50;99.90
7129;DHT22;3606;52.930;8.644;2023-02-28T07:52:06;9.30;1.00
7129;DHT22;3606;52.930;8.644;2023-02-28T07:54:33;10.00;1.00
7129;DHT22;3606;52.930;8.644;2023-02-28T07:56:58;10.40;99.90
7129;DHT22;3606;52.930;8.644;2023-02-28T07:59:24;11.00;1.00
7129;DHT22;3606;52.930;8.644;2023-02-28T08:01:50;11.30;99.90
7129;DHT22;3606;52.930;8.644;2023-02-28T08:04:17;11.60;1.00
7129;DHT22;3606;52.930;8.644;2023-02-28T08:06:42;11.90;1.00
7129;DHT22;3606;52.930;8.644;2023-02-28T08:09:08;12.20;1.00
7129;DHT22;3606;52.930;8.644;2023-02-28T08:11:34;12.50;1.00
7129;DHT22;3606;52.930;8.644;2023-02-28T08:13:59;12.90;1.00
7129;DHT22;3606;52.930;8.644;2023-02-28T08:16:25;12.70;99.90
7129;DHT22;3606;52.930;8.644;2023-02-28T08:18:51;12.80;99.90
7129;DHT22;3606;52.930;8.644;2023-02-28T08:21:18;13.30;99.90
7129;DHT22;3606;52.930;8.644;2023-02-28T08:23:47;13.50;99.90
7129;DHT22;3606;52.930;8.644;2023-02-28T08:26:13;13.80;99.90
7129;DHT22;3606;52.930;8.644;2023-02-28T08:28:38;14.00;99.90
7129;DHT22;3606;52.930;8.644;2023-02-28T08:31:09;14.20;99.90
7129;DHT22;3606;52.930;8.644;2023-02-28T08:33:36;14.50;99.90
7129;DHT22;3606;52.930;8.644;2023-02-28T08:36:02;14.60;99.90
7129;DHT22;3606;52.930;8.644;2023-02-28T08:38:28;14.50;99.90
7129;DHT22;3606;52.930;8.644;2023-02-28T08:41:01;14.50;99.90
7129;DHT22;3606;52.930;8.644;2023-02-28T08:43:27;15.10;99.90
7129;DHT22;3606;52.930;8.644;2023-02-28T08:45:57;15.70;99.90
7129;DHT22;3606;52.930;8.644;2023-02-28T08:48:24;16.40;99.90
7129;DHT22;3606;52.930;8.644;2023-02-28T08:51:05;16.20;99.90
7129;DHT22;3606;52.930;8.644;2023-02-28T08:53:31;15.60;99.90
7129;DHT22;3606;52.930;8.644;2023-02-28T08:56:02;15.90;99.90
7129;DHT22;3606;52.930;8.644;2023-02-28T08:58:28;15.80;99.90
7129;DHT22;3606;52.930;8.644;2023-02-28T09:00:54;16.00;99.90
7129;DHT22;3606;52.930;8.644;2023-02-28T09:03:20;16.20;99.90
7129;DHT22;3606;52.930;8.644;2023-02-28T09:06:01;16.60;99.90
7129;DHT22;3606;52.930;8.644;2023-02-28T09:08:29;16.80;99.90
7129;DHT22;3606;52.930;8.644;2023-02-28T09:10:58;17.00;99.90
7129;DHT22;3606;52.930;8.644;2023-02-28T09:13:25;17.40;99.90
7129;DHT22;3606;52.930;8.644;2023-02-28T09:15:51;17.40;99.90
7129;DHT22;3606;52.930;8.644;2023-02-28T09:18:17;17.70;99.90
7129;DHT22;3606;52.930;8.644;2023-02-28T09:20:43;18.10;99.90
7129;DHT22;3606;52.930;8.644;2023-02-28T09:23:10;18.30;99.90
7129;DHT22;3606;52.930;8.644;2023-02-28T09:25:36;17.70;99.90
7129;DHT22;3606;52.930;8.644;2023-02-28T09:28:03;17.40;99.90
7129;DHT22;3606;52.930;8.644;2023-02-28T09:30:29;18.20;99.90
7129;DHT22;3606;52.930;8.644;2023-02-28T09:32:55;18.60;99.90
7129;DHT22;3606;52.930;8.644;2023-02-28T09:35:22;18.70;99.90
7129;DHT22;3606;52.930;8.644;2023-02-28T09:37:50;18.10;99.90
7129;DHT22;3606;52.930;8.644;2023-02-28T09:40:17;17.70;99.90
7129;DHT22;3606;52.930;8.644;2023-02-28T09:42:46;17.80;99.90
7129;DHT22;3606;52.930;8.644;2023-02-28T09:45:26;18.00;99.90
7129;DHT22;3606;52.930;8.644;2023-02-28T09:47:59;17.20;99.90
7129;DHT22;3606;52.930;8.644;2023-02-28T09:50:36;15.70;99.90
7129;DHT22;3606;52.930;8.644;2023-02-28T09:53:10;15.60;99.90
7129;DHT22;3606;52.930;8.644;2023-02-28T09:55:44;16.10;99.90
7129;DHT22;3606;52.930;8.644;2023-02-28T09:58:22;15.90;99.90
7129;DHT22;3606;52.930;8.644;2023-02-28T10:04:03;15.70;99.90
7129;DHT22;3606;52.930;8.644;2023-02-28T10:06:38;16.60;99.90
7129;DHT22;3606;52.930;8.644;2023-02-28T10:09:11;17.50;99.90
7129;DHT22;3606;52.930;8.644;2023-02-28T10:11:41;17.60;99.90
7129;DHT22;3606;52.930;8.644;2023-02-28T10:14:21;17.10;99.90
7129;DHT22;3606;52.930;8.644;2023-02-28T10:16:54;16.80;99.90
7129;DHT22;3606;52.930;8.644;2023-02-28T10:19:56;16.70;99.90
7129;DHT22;3606;52.930;8.644;2023-02-28T10:25:38;17.50;99.90
7129;DHT22;3606;52.930;8.644;2023-02-28T10:28:15;18.40;99.90
7129;DHT22;3606;52.930;8.644;2023-02-28T10:30:46;18.80;99.90
7129;DHT22;3606;52.930;8.644;2023-02-28T10:33:35;18.10;99.90
7129;DHT22;3606;52.930;8.644;2023-02-28T10:36:02;17.50;99.90
7129;DHT22;3606;52.930;8.644;2023-02-28T10:38:39;17.40;99.90
7129;DHT22;3606;52.930;8.644;2023-02-28T10:41:12;16.30;99.90
7129;DHT22;3606;52.930;8.644;2023-02-28T10:43:39;16.50;99.90
7129;DHT22;3606;52.930;8.644;2023-02-28T10:46:16;17.00;99.90
7129;DHT22;3606;52.930;8.644;2023-02-28T10:49:02;16.90;99.90
7129;DHT22;3606;52.930;8.644;2023-02-28T10:51:38;17.10;99.90
7129;DHT22;3606;52.930;8.644;2023-02-28T10:54:04;17.60;99.90
7129;DHT22;3606;52.930;8.644;2023-02-28T10:56:31;18.10;99.90
7129;DHT22;3606;52.930;8.644;2023-02-28T10:59:27;17.90;99.90
7129;DHT22;3606;52.930;8.644;2023-02-28T11:01:53;17.20;99.90
7129;DHT22;3606;52.930;8.644;2023-02-28T11:04:23;16.20;99.90
7129;DHT22;3606;52.930;8.644;2023-02-28T11:07:26;16.10;99.90
7129;DHT22;3606;52.930;8.644;2023-02-28T11:09:56;15.20;99.90
7129;DHT22;3606;52.930;8.644;2023-02-28T11:12:26;14.90;99.90
7129;DHT22;3606;52.930;8.644;2023-02-28T11:15:00;14.90;99.90
7129;DHT22;3606;52.930;8.644;2023-02-28T11:17:29;15.20;99.90
7129;DHT22;3606;52.930;8.644;2023-02-28T11:20:05;14.80;99.90
7129;DHT22;3606;52.930;8.644;2023-02-28T11:22:36;14.80;99.90
7129;DHT22;3606;52.930;8.644;2023-02-28T11:25:09;14.60;99.90
7129;DHT22;3606;52.930;8.644;2023-02-28T11:27:52;14.60;99.90
7129;DHT22;3606;52.930;8.644;2023-02-28T11:30:33;14.50;99.90
7129;DHT22;3606;52.930;8.644;2023-02-28T11:36:29;12.90;99.90
7129;DHT22;3606;52.930;8.644;2023-02-28T11:39:01;12.80;99.90
7129;DHT22;3606;52.930;8.644;2023-02-28T11:57:44;12.20;99.90
7129;DHT22;3606;52.930;8.644;2023-02-28T12:17:28;11.90;99.90
7129;DHT22;3606;52.930;8.644;2023-02-28T12:20:12;11.60;99.90
7129;DHT22;3606;52.930;8.644;2023-02-28T12:22:52;11.70;99.90
7129;DHT22;3606;52.930;8.644;2023-02-28T12:27:49;12.00;99.90
7129;DHT22;3606;52.930;8.644;2023-02-28T12:30:28;12.30;99.90
7129;DHT22;3606;52.930;8.644;2023-02-28T12:33:04;12.30;99.90
7129;DHT22;3606;52.930;8.644;2023-02-28T12:35:41;11.90;99.90
7129;DHT22;3606;52.930;8.644;2023-02-28T12:41:10;11.50;99.90
7129;DHT22;3606;52.930;8.644;2023-02-28T12:43:40;11.30;99.90
7129;DHT22;3606;52.930;8.644;2023-02-28T12:46:32;11.60;99.90
7129;DHT22;3606;52.930;8.644;2023-02-28T12:48:57;11.30;99.90
7129;DHT22;3606;52.930;8.644;2023-02-28T12:51:25;11.00;99.90
7129;DHT22;3606;52.930;8.644;2023-02-28T12:59:21;10.60;99.90
7129;DHT22;3606;52.930;8.644;2023-02-28T13:09:32;10.50;99.90
7129;DHT22;3606;52.930;8.644;2023-02-28T13:11:58;10.80;99.90
7129;DHT22;3606;52.930;8.644;2023-02-28T13:19:34;11.00;99.90
7129;DHT22;3606;52.930;8.644;2023-02-28T13:22:02;10.90;99.90
7129;DHT22;3606;52.930;8.644;2023-02-28T13:29:38;11.60;99.90
7129;DHT22;3606;52.930;8.644;2023-02-28T13:34:46;11.80;99.90
7129;DHT22;3606;52.930;8.644;2023-02-28T13:39:57;12.00;99.90
7129;DHT22;3606;52.930;8.644;2023-02-28T13:47:41;12.10;99.90
7129;DHT22;3606;52.930;8.644;2023-02-28T13:55:53;12.10;99.90
7129;DHT22;3606;52.930;8.644;2023-02-28T14:04:31;12.60;99.90
7129;DHT22;3606;52.930;8.644;2023-02-28T14:07:04;12.50;99.90
7129;DHT22;3606;52.930;8.644;2023-02-28T14:09:37;12.20;99.90
7129;DHT22;3606;52.930;8.644;2023-02-28T14:18:01;12.70;99.90
7129;DHT22;3606;52.930;8.644;2023-02-28T14:20:31;12.80;99.90
7129;DHT22;3606;52.930;8.644;2023-02-28T14:23:32;12.50;99.90
7129;DHT22;3606;52.930;8.644;2023-02-28T14:26:14;12.80;99.90
7129;DHT22;3606;52.930;8.644;2023-02-28T14:31:25;12.40;99.90
7129;DHT22;3606;52.930;8.644;2023-02-28T14:34:05;12.60;99.90
7129;DHT22;3606;52.930;8.644;2023-02-28T14:36:42;12.50;99.90
7129;DHT22;3606;52.930;8.644;2023-02-28T14:39:14;12.20;99.90
7129;DHT22;3606;52.930;8.644;2023-02-28T14:41:42;11.50;99.90
7129;DHT22;3606;52.930;8.644;2023-02-28T14:44:21;10.60;99.90
7129;DHT22;3606;52.930;8.644;2023-02-28T14:46:50;9.80;99.90
7129;DHT22;3606;52.930;8.644;2023-02-28T14:49:34;9.20;99.90
7129;DHT22;3606;52.930;8.644;2023-02-28T14:52:14;8.80;99.90
7129;DHT22;3606;52.930;8.644;2023-02-28T14:54:41;8.50;99.90
7129;DHT22;3606;52.930;8.644;2023-02-28T14:57:27;8.30;99.90
7129;DHT22;3606;52.930;8.644;2023-02-28T15:00:02;8.70;99.90
7129;DHT22;3606;52.930;8.644;2023-02-28T15:02:33;9.70;99.90
7129;DHT22;3606;52.930;8.644;2023-02-28T15:05:23;10.40;99.90
7129;DHT22;3606;52.930;8.644;2023-02-28T15:07:48;11.30;99.90
7129;DHT22;3606;52.930;8.644;2023-02-28T15:10:24;11.90;99.90
7129;DHT22;3606;52.930;8.644;2023-02-28T15:13:02;12.40;99.90
7129;DHT22;3606;52.930;8.644;2023-02-28T15:16:31;12.70;99.90
7129;DHT22;3606;52.930;8.644;2023-02-28T15:18:48;12.70;99.90
7129;DHT22;3606;52.930;8.644;2023-02-28T15:21:22;13.10;99.90
7129;DHT22;3606;52.930;8.644;2023-02-28T15:23:52;13.10;99.90
7129;DHT22;3606;52.930;8.644;2023-02-28T15:26:21;13.00;99.90
7129;DHT22;3606;52.930;8.644;2023-02-28T15:28:51;12.50;99.90
7129;DHT22;3606;52.930;8.644;2023-02-28T15:31:24;12.80;99.90
7129;DHT22;3606;52.930;8.644;2023-02-28T15:34:02;13.50;99.90
7129;DHT22;3606;52.930;8.644;2023-02-28T15:36:32;12.30;99.90
7129;DHT22;3606;52.930;8.644;2023-02-28T15:38:59;10.40;99.90
7129;DHT22;3606;52.930;8.644;2023-02-28T15:41:28;9.00;99.90
7129;DHT22;3606;52.930;8.644;2023-02-28T15:44:17;7.90;99.90
7129;DHT22;3606;52.930;8.644;2023-02-28T15:46:58;7.10;99.90
7129;DHT22;3606;52.930;8.644;2023-02-28T15:49:25;6.60;99.90
7129;DHT22;3606;52.930;8.644;2023-02-28T15:51:52;6.30;99.90
7129;DHT22;3606;52.930;8.644;2023-02-28T15:54:26;6.10;99.90
7129;DHT22;3606;52.930;8.644;2023-02-28T15:56:55;6.00;99.90
7129;DHT22;3606;52.930;8.644;2023-02-28T15:59:31;5.80;99.90
7129;DHT22;3606;52.930;8.644;2023-02-28T16:02:15;5.60;99.90
7129;DHT22;3606;52.930;8.644;2023-02-28T16:07:36;5.20;1.00
7129;DHT22;3606;52.930;8.644;2023-02-28T16:10:02;5.10;1.00
7129;DHT22;3606;52.930;8.644;2023-02-28T16:12:33;5.00;1.00
7129;DHT22;3606;52.930;8.644;2023-02-28T16:17:41;4.90;1.00
7129;DHT22;3606;52.930;8.644;2023-02-28T16:20:30;4.90;1.00
7129;DHT22;3606;52.930;8.644;2023-02-28T16:22:56;4.80;1.00
7129;DHT22;3606;52.930;8.644;2023-02-28T16:25:48;4.70;1.00
7129;DHT22;3606;52.930;8.644;2023-02-28T16:28:25;4.60;1.00
7129;DHT22;3606;52.930;8.644;2023-02-28T16:30:56;4.50;1.00
7129;DHT22;3606;52.930;8.644;2023-02-28T16:33:22;4.30;1.00
7129;DHT22;3606;52.930;8.644;2023-02-28T16:35:47;4.20;1.00
7129;DHT22;3606;52.930;8.644;2023-02-28T16:38:13;4.00;1.00
7129;DHT22;3606;52.930;8.644;2023-02-28T16:40:38;4.00;1.00
7129;DHT22;3606;52.930;8.644;2023-02-28T16:43:13;3.90;14.30
7129;DHT22;3606;52.930;8.644;2023-02-28T16:45:40;3.80;99.90
7129;DHT22;3606;52.930;8.644;2023-02-28T16:48:14;3.50;99.90
7129;DHT22;3606;52.930;8.644;2023-02-28T16:50:39;3.30;1.00
7129;DHT22;3606;52.930;8.644;2023-02-28T16:53:05;3.10;1.00
7129;DHT22;3606;52.930;8.644;2023-02-28T16:55:31;2.90;1.00
7129;DHT22;3606;52.930;8.644;2023-02-28T16:57:59;2.70;1.00
7129;DHT22;3606;52.930;8.644;2023-02-28T17:00:26;2.50;99.90
7129;DHT22;3606;52.930;8.644;2023-02-28T17:02:53;2.30;90.00
7129;DHT22;3606;52.930;8.644;2023-02-28T17:05:19;2.20;99.90
7129;DHT22;3606;52.930;8.644;2023-02-28T17:07:46;2.00;99.90
7129;DHT22;3606;52.930;8.644;2023-02-28T17:12:42;1.70;1.00
7129;DHT22;3606;52.930;8.644;2023-02-28T17:15:12;1.60;1.00
7129;DHT22;3606;52.930;8.644;2023-02-28T17:17:39;1.40;1.00
7129;DHT22;3606;52.930;8.644;2023-02-28T17:20:05;1.30;99.90
7129;DHT22;3606;52.930;8.644;2023-02-28T17:22:32;1.20;99.90
7129;DHT22;3606;52.930;8.644;2023-02-28T17:24:57;1.00;1.00
7129;DHT22;3606;52.930;8.644;2023-02-28T17:27:24;1.00;99.90
7129;DHT22;3606;52.930;8.644;2023-02-28T17:29:50;0.90;99.90
7129;DHT22;3606;52.930;8.644;2023-02-28T17:32:17;0.80;99.90
7129;DHT22;3606;52.930;8.644;2023-02-28T17:34:42;0.70;1.00
7129;DHT22;3606;52.930;8.644;2023-02-28T17:37:09;0.60;1.00
7129;DHT22;3606;52.930;8.644;2023-02-28T17:39:35;0.50;99.90
7129;DHT22;3606;52.930;8.644;2023-02-28T17:42:01;0.50;1.00
7129;DHT22;3606;52.930;8.644;2023-02-28T17:44:27;0.40;1.00
7129;DHT22;3606;52.930;8.644;2023-02-28T17:46:54;0.40;1.00
7129;DHT22;3606;52.930;8.644;2023-02-28T17:49:20;0.30;1.00
7129;DHT22;3606;52.930;8.644;2023-02-28T17:51:46;0.20;1.00
7129;DHT22;3606;52.930;8.644;2023-02-28T17:54:12;0.10;27.50
7129;DHT22;3606;52.930;8.644;2023-02-28T17:56:39;0.00;99.90
7129;DHT22;3606;52.930;8.644;2023-02-28T17:59:05;-0.10;99.90
7129;DHT22;3606;52.930;8.644;2023-02-28T18:01:31;-0.10;1.00
7129;DHT22;3606;52.930;8.644;2023-02-28T18:03:56;-0.20;1.00
7129;DHT22;3606;52.930;8.644;2023-02-28T18:06:43;-0.30;24.30
7129;DHT22;3606;52.930;8.644;2023-02-28T18:09:20;-0.40;1.00
7129;DHT22;3606;52.930;8.644;2023-02-28T18:11:54;-0.60;1.00
7129;DHT22;3606;52.930;8.644;2023-02-28T18:14:23;-0.70;99.90
7129;DHT22;3606;52.930;8.644;2023-02-28T18:16:50;-0.80;1.00
7129;DHT22;3606;52.930;8.644;2023-02-28T18:19:16;-0.90;1.00
7129;DHT22;3606;52.930;8.644;2023-02-28T18:21:47;-0.90;1.00
7129;DHT22;3606;52.930;8.644;2023-02-28T18:24:13;-0.90;1.00
7129;DHT22;3606;52.930;8.644;2023-02-28T18:26:41;-1.00;1.00
7129;DHT22;3606;52.930;8.644;2023-02-28T18:29:07;-1.00;1.00
7129;DHT22;3606;52.930;8.644;2023-02-28T18:31:34;-1.00;99.90
7129;DHT22;3606;52.930;8.644;2023-02-28T18:34:00;-1.00;1.00
7129;DHT22;3606;52.930;8.644;2023-02-28T18:36:26;-1.10;99.90
7129;DHT22;3606;52.930;8.644;2023-02-28T18:38:53;-1.20;1.00
7129;DHT22;3606;52.930;8.644;2023-02-28T18:41:20;-1.30;1.00
7129;DHT22;3606;52.930;8.644;2023-02-28T18:43:47;-1.40;1.00
7129;DHT22;3606;52.930;8.644;2023-02-28T18:46:15;-1.50;1.00
7129;DHT22;3606;52.930;8.644;2023-02-28T18:48:41;-1.50;99.90
7129;DHT22;3606;52.930;8.644;2023-02-28T18:51:09;-1.40;99.90
7129;DHT22;3606;52.930;8.644;2023-02-28T18:53:35;-1.40;99.90
7129;DHT22;3606;52.930;8.644;2023-02-28T18:56:02;-1.40;1.00
7129;DHT22;3606;52.930;8.644;2023-02-28T18:58:28;-1.50;1.00
7129;DHT22;3606;52.930;8.644;2023-02-28T19:00:54;-1.50;1.00
7129;DHT22;3606;52.930;8.644;2023-02-28T19:03:20;-1.50;1.00